PWSweather.com
Personal Weather Stations
Station Observations

ChardChardGB

Lat: 50.877408, Lon: -2.94964741

Elevation: 341

Station Type: WS3083

http://www.merriott-astro.co.uk/weather/index.htm

High Low Average
Temperature 70.9°F21.6°C 60.6°F15.9°C 64.6°F18.1°C
Dew Point 60.5°F15.8°C 53.3°F11.8°C 58.1°F14.5°C
Winds 18.0 mph 29.0 kmh 4.5 mph 7.2 kmh 10.0 mph SSW16.1 kmh SSW
Wind Gusts 27.3 mph43.9 kmh 6.9 mph11.1 kmh 13.0 mph20.9 kmh
Humidity 93% 62% 80%
Pressure 29.48 in998.3 mb 29.21 in989.2 mb -
Precipitation 0.04 in1.0 mm - -
Hour Temp Dew Point Humidity Winds Wind Gusts Pressure Precip Precip Rate Daily Precip Total
12:00 AM 64.2°F17.9°C 59.6°F15.3°C 85% 14.0 mph S22.5 kmh S 19.0 mph30.6 kmh 29.26 in990.9 mb 0.01 in0.3 mm 0.00 in0.0 mm 0.01 in0.3 mm
12:10 AM 64.4°F18.0°C 59.8°F15.4°C 85% 17.5 mph S28.2 kmh S 24.4 mph39.3 kmh 29.26 in990.9 mb 0.01 in0.3 mm 0.00 in0.0 mm 0.01 in0.3 mm
12:20 AM 64.4°F18.0°C 59.5°F15.3°C 84% 17.1 mph SW27.5 kmh SW 22.8 mph36.7 kmh 29.25 in990.5 mb 0.00 in0.0 mm 0.00 in0.0 mm 0.01 in0.3 mm
12:30 AM 64.4°F18.0°C 59.5°F15.3°C 84% 17.6 mph ESE28.3 kmh ESE 21.3 mph34.3 kmh 29.25 in990.5 mb 0.00 in0.0 mm 0.00 in0.0 mm 0.01 in0.3 mm
12:40 AM 64.4°F18.0°C 59.1°F15.1°C 83% 18.0 mph S29.0 kmh S 26.6 mph42.8 kmh 29.24 in990.2 mb 0.00 in0.0 mm 0.00 in0.0 mm 0.01 in0.3 mm
12:50 AM 64.2°F17.9°C 59.0°F15.0°C 83% 15.4 mph SSW24.8 kmh SSW 23.5 mph37.8 kmh 29.24 in990.2 mb 0.00 in0.0 mm 0.00 in0.0 mm 0.01 in0.3 mm
01:00 AM 64.0°F17.8°C 59.1°F15.1°C 84% 16.5 mph S26.6 kmh S 22.1 mph35.6 kmh 29.24 in990.2 mb 0.00 in0.0 mm 0.00 in0.0 mm 0.01 in0.3 mm
01:10 AM 63.7°F17.6°C 59.4°F15.2°C 86% 14.6 mph SSE23.5 kmh SSE 27.3 mph43.9 kmh 29.23 in989.8 mb 0.00 in0.0 mm 0.00 in0.0 mm 0.01 in0.3 mm
01:20 AM 63.3°F17.4°C 60.4°F15.8°C 90% 15.9 mph SSW25.6 kmh SSW 20.6 mph33.2 kmh 29.23 in989.8 mb 0.00 in0.0 mm 0.00 in0.0 mm 0.01 in0.3 mm
01:30 AM 63.1°F17.3°C 60.5°F15.8°C 91% 13.7 mph S22.0 kmh S 25.1 mph40.4 kmh 29.23 in989.8 mb 0.01 in0.3 mm 0.06 in1.5 mm 0.01 in0.3 mm
01:40 AM 63.1°F17.3°C 60.5°F15.8°C 91% 9.8 mph S15.8 kmh S 9.8 mph15.8 kmh 29.23 in989.8 mb 0.01 in0.3 mm 0.00 in0.0 mm 0.01 in0.3 mm
01:50 AM 63.1°F17.3°C 60.5°F15.8°C 91% 9.8 mph S15.8 kmh S 9.8 mph15.8 kmh 29.23 in989.8 mb 0.01 in0.3 mm 0.00 in0.0 mm 0.01 in0.3 mm
02:00 AM 63.1°F17.3°C 60.5°F15.8°C 91% 9.8 mph S15.8 kmh S 9.8 mph15.8 kmh 29.22 in989.5 mb 0.01 in0.3 mm 0.00 in0.0 mm 0.01 in0.3 mm
02:10 AM 63.1°F17.3°C 60.5°F15.8°C 91% 9.8 mph S15.8 kmh S 9.8 mph15.8 kmh 29.23 in989.8 mb 0.01 in0.3 mm 0.00 in0.0 mm 0.01 in0.3 mm
02:20 AM 63.1°F17.3°C 60.5°F15.8°C 91% 9.8 mph S15.8 kmh S 9.8 mph15.8 kmh 29.22 in989.5 mb 0.01 in0.3 mm 0.00 in0.0 mm 0.01 in0.3 mm
02:30 AM 63.1°F17.3°C 60.5°F15.8°C 91% 9.8 mph S15.8 kmh S 9.8 mph15.8 kmh 29.22 in989.5 mb 0.00 in0.0 mm 0.00 in0.0 mm 0.01 in0.3 mm
02:40 AM 63.1°F17.3°C 60.5°F15.8°C 91% 9.8 mph S15.8 kmh S 9.8 mph15.8 kmh 29.21 in989.2 mb 0.00 in0.0 mm 0.00 in0.0 mm 0.01 in0.3 mm
02:50 AM 63.1°F17.3°C 60.5°F15.8°C 91% 9.8 mph S15.8 kmh S 9.8 mph15.8 kmh 29.22 in989.5 mb 0.00 in0.0 mm 0.00 in0.0 mm 0.01 in0.3 mm
03:00 AM 63.1°F17.3°C 60.5°F15.8°C 91% 9.8 mph S15.8 kmh S 9.8 mph15.8 kmh 29.22 in989.5 mb 0.00 in0.0 mm 0.00 in0.0 mm 0.01 in0.3 mm
03:10 AM 63.1°F17.3°C 60.5°F15.8°C 91% 9.8 mph S15.8 kmh S 9.8 mph15.8 kmh 29.23 in989.8 mb 0.00 in0.0 mm 0.00 in0.0 mm 0.01 in0.3 mm
03:20 AM 63.1°F17.3°C 60.5°F15.8°C 91% 9.8 mph S15.8 kmh S 9.8 mph15.8 kmh 29.23 in989.8 mb 0.00 in0.0 mm 0.00 in0.0 mm 0.01 in0.3 mm
03:30 AM 63.1°F17.3°C 60.5°F15.8°C 91% 9.8 mph S15.8 kmh S 9.8 mph15.8 kmh 29.22 in989.5 mb 0.00 in0.0 mm 0.00 in0.0 mm 0.01 in0.3 mm
03:40 AM 63.1°F17.3°C 60.5°F15.8°C 91% 9.8 mph S15.8 kmh S 9.8 mph15.8 kmh 29.22 in989.5 mb 0.00 in0.0 mm 0.00 in0.0 mm 0.01 in0.3 mm
03:50 AM 63.1°F17.3°C 60.5°F15.8°C 91% 9.8 mph S15.8 kmh S 9.8 mph15.8 kmh 29.23 in989.8 mb 0.00 in0.0 mm 0.00 in0.0 mm 0.01 in0.3 mm
04:00 AM 63.1°F17.3°C 60.5°F15.8°C 91% 9.8 mph S15.8 kmh S 9.8 mph15.8 kmh 29.23 in989.8 mb 0.00 in0.0 mm 0.00 in0.0 mm 0.01 in0.3 mm
04:10 AM 63.1°F17.3°C 60.5°F15.8°C 91% 9.8 mph S15.8 kmh S 9.8 mph15.8 kmh 29.23 in989.8 mb 0.00 in0.0 mm 0.00 in0.0 mm 0.01 in0.3 mm
04:20 AM 63.1°F17.3°C 60.5°F15.8°C 91% 9.8 mph S15.8 kmh S 9.8 mph15.8 kmh 29.23 in989.8 mb 0.00 in0.0 mm 0.00 in0.0 mm 0.01 in0.3 mm
04:30 AM 63.1°F17.3°C 60.5°F15.8°C 91% 9.8 mph S15.8 kmh S 9.8 mph15.8 kmh 29.23 in989.8 mb 0.00 in0.0 mm 0.00 in0.0 mm 0.01 in0.3 mm
04:40 AM 63.1°F17.3°C 60.5°F15.8°C 91% 9.8 mph S15.8 kmh S 9.8 mph15.8 kmh 29.24 in990.2 mb 0.00 in0.0 mm 0.00 in0.0 mm 0.01 in0.3 mm
04:50 AM 63.1°F17.3°C 60.5°F15.8°C 91% 9.8 mph S15.8 kmh S 9.8 mph15.8 kmh 29.24 in990.2 mb 0.00 in0.0 mm 0.00 in0.0 mm 0.01 in0.3 mm
05:00 AM 63.1°F17.3°C 60.5°F15.8°C 91% 9.8 mph S15.8 kmh S 9.8 mph15.8 kmh 29.24 in990.2 mb 0.00 in0.0 mm 0.00 in0.0 mm 0.01 in0.3 mm
05:10 AM 63.1°F17.3°C 60.5°F15.8°C 91% 9.8 mph S15.8 kmh S 9.8 mph15.8 kmh 29.26 in990.9 mb 0.00 in0.0 mm 0.00 in0.0 mm 0.01 in0.3 mm
05:20 AM 63.1°F17.3°C 60.5°F15.8°C 91% 9.8 mph S15.8 kmh S 9.8 mph15.8 kmh 29.26 in990.9 mb 0.00 in0.0 mm 0.00 in0.0 mm 0.01 in0.3 mm
05:30 AM 63.1°F17.3°C 60.5°F15.8°C 91% 9.8 mph S15.8 kmh S 9.8 mph15.8 kmh 29.28 in991.5 mb 0.00 in0.0 mm 0.00 in0.0 mm 0.01 in0.3 mm
05:40 AM 63.1°F17.3°C 60.5°F15.8°C 91% 9.8 mph S15.8 kmh S 9.8 mph15.8 kmh 29.28 in991.5 mb 0.00 in0.0 mm 0.00 in0.0 mm 0.01 in0.3 mm
05:50 AM 63.1°F17.3°C 60.5°F15.8°C 91% 9.8 mph S15.8 kmh S 9.8 mph15.8 kmh 29.28 in991.5 mb 0.00 in0.0 mm 0.00 in0.0 mm 0.01 in0.3 mm
06:00 AM 61.5°F16.4°C 57.3°F14.1°C 86% 8.4 mph SW13.5 kmh SW 10.7 mph17.2 kmh 29.29 in991.9 mb 0.00 in0.0 mm 0.00 in0.0 mm 0.01 in0.3 mm
06:10 AM 61.5°F16.4°C 57.0°F13.9°C 85% 6.7 mph S10.8 kmh S 8.3 mph13.4 kmh 29.29 in991.9 mb 0.00 in0.0 mm 0.00 in0.0 mm 0.01 in0.3 mm
06:20 AM 61.3°F16.3°C 56.8°F13.8°C 85% 9.7 mph SW15.6 kmh SW 13.6 mph21.9 kmh 29.30 in992.2 mb 0.00 in0.0 mm 0.00 in0.0 mm 0.01 in0.3 mm
06:30 AM 60.8°F16.0°C 56.3°F13.5°C 85% 9.4 mph SW15.1 kmh SW 15.9 mph25.6 kmh 29.32 in992.9 mb 0.00 in0.0 mm 0.00 in0.0 mm 0.01 in0.3 mm
06:40 AM 60.6°F15.9°C 56.4°F13.6°C 86% 6.5 mph WSW10.5 kmh WSW 8.3 mph13.4 kmh 29.32 in992.9 mb 0.00 in0.0 mm 0.00 in0.0 mm 0.01 in0.3 mm
06:50 AM 60.6°F15.9°C 56.4°F13.6°C 86% 8.2 mph SW13.2 kmh SW 8.3 mph13.4 kmh 29.33 in993.2 mb 0.00 in0.0 mm 0.00 in0.0 mm 0.01 in0.3 mm
07:00 AM 61.0°F16.1°C 55.5°F13.1°C 82% 8.0 mph WSW12.9 kmh WSW 9.2 mph14.8 kmh 29.33 in993.2 mb 0.00 in0.0 mm 0.00 in0.0 mm 0.01 in0.3 mm
07:10 AM 61.3°F16.3°C 55.1°F12.8°C 80% 10.2 mph W16.4 kmh W 13.0 mph20.9 kmh 29.34 in993.6 mb 0.00 in0.0 mm 0.00 in0.0 mm 0.01 in0.3 mm
07:20 AM 61.5°F16.4°C 53.9°F12.2°C 76% 11.4 mph WNW18.3 kmh WNW 13.0 mph20.9 kmh 29.34 in993.6 mb 0.00 in0.0 mm 0.00 in0.0 mm 0.01 in0.3 mm
07:30 AM 62.1°F16.7°C 54.8°F12.7°C 77% 8.7 mph WSW14.0 kmh WSW 10.7 mph17.2 kmh 29.34 in993.6 mb 0.00 in0.0 mm 0.00 in0.0 mm 0.01 in0.3 mm
07:40 AM 62.1°F16.7°C 54.8°F12.7°C 77% 4.5 mph W7.2 kmh W 6.9 mph11.1 kmh 29.35 in993.9 mb 0.00 in0.0 mm 0.00 in0.0 mm 0.01 in0.3 mm
07:50 AM 63.3°F17.4°C 54.9°F12.7°C 74% 8.2 mph S13.2 kmh S 12.1 mph19.5 kmh 29.36 in994.2 mb 0.00 in0.0 mm 0.00 in0.0 mm 0.01 in0.3 mm
08:00 AM 62.8°F17.1°C 53.3°F11.8°C 71% 12.3 mph SW19.8 kmh SW 17.4 mph28.0 kmh 29.36 in994.2 mb 0.00 in0.0 mm 0.00 in0.0 mm 0.01 in0.3 mm
08:10 AM 63.3°F17.4°C 53.8°F12.1°C 71% 9.5 mph WSW15.3 kmh WSW 14.5 mph23.3 kmh 29.36 in994.2 mb 0.00 in0.0 mm 0.00 in0.0 mm 0.01 in0.3 mm
08:20 AM 63.3°F17.4°C 53.8°F12.1°C 71% 8.3 mph SW13.4 kmh SW 15.9 mph25.6 kmh 29.37 in994.6 mb 0.00 in0.0 mm 0.00 in0.0 mm 0.01 in0.3 mm
08:30 AM 63.7°F17.6°C 53.3°F11.8°C 69% 9.1 mph SW14.6 kmh SW 17.4 mph28.0 kmh 29.36 in994.2 mb 0.00 in0.0 mm 0.00 in0.0 mm 0.01 in0.3 mm
08:40 AM 64.2°F17.9°C 53.5°F11.9°C 68% 9.7 mph SW15.6 kmh SW 14.5 mph23.3 kmh 29.37 in994.6 mb 0.00 in0.0 mm 0.00 in0.0 mm 0.01 in0.3 mm
08:50 AM 64.0°F17.8°C 53.7°F12.1°C 69% 8.9 mph SE14.3 kmh SE 17.4 mph28.0 kmh 29.38 in994.9 mb 0.00 in0.0 mm 0.00 in0.0 mm 0.01 in0.3 mm
09:00 AM 64.2°F17.9°C 53.9°F12.2°C 69% 8.6 mph SSW13.8 kmh SSW 13.6 mph21.9 kmh 29.38 in994.9 mb 0.00 in0.0 mm 0.00 in0.0 mm 0.01 in0.3 mm
09:10 AM 64.4°F18.0°C 53.6°F12.0°C 68% 9.0 mph SSE14.5 kmh SSE 15.2 mph24.5 kmh 29.38 in994.9 mb 0.00 in0.0 mm 0.00 in0.0 mm 0.01 in0.3 mm
09:20 AM 66.0°F18.9°C 54.8°F12.7°C 67% 8.7 mph NW14.0 kmh NW 15.2 mph24.5 kmh 29.39 in995.3 mb 0.00 in0.0 mm 0.00 in0.0 mm 0.01 in0.3 mm
09:30 AM 67.1°F19.5°C 54.5°F12.5°C 64% 9.7 mph SW15.6 kmh SW 13.6 mph21.9 kmh 29.39 in995.3 mb 0.00 in0.0 mm 0.00 in0.0 mm 0.01 in0.3 mm
09:40 AM 67.1°F19.5°C 54.1°F12.3°C 63% 9.3 mph SW15.0 kmh SW 13.0 mph20.9 kmh 29.39 in995.3 mb 0.00 in0.0 mm 0.00 in0.0 mm 0.01 in0.3 mm
09:50 AM 67.6°F19.8°C 54.6°F12.6°C 63% 7.6 mph SW12.2 kmh SW 10.7 mph17.2 kmh 29.40 in995.6 mb 0.00 in0.0 mm 0.00 in0.0 mm 0.01 in0.3 mm
10:00 AM 68.2°F20.1°C 55.1°F12.8°C 63% 7.5 mph S12.1 kmh S 9.8 mph15.8 kmh 29.41 in995.9 mb 0.00 in0.0 mm 0.00 in0.0 mm 0.01 in0.3 mm
10:10 AM 67.8°F19.9°C 55.2°F12.9°C 64% 8.1 mph SW13.0 kmh SW 11.4 mph18.3 kmh 29.41 in995.9 mb 0.00 in0.0 mm 0.00 in0.0 mm 0.01 in0.3 mm
10:20 AM 67.8°F19.9°C 55.2°F12.9°C 64% 7.5 mph WNW12.1 kmh WNW 11.4 mph18.3 kmh 29.41 in995.9 mb 0.00 in0.0 mm 0.00 in0.0 mm 0.01 in0.3 mm
10:30 AM 68.0°F20.0°C 55.4°F13.0°C 64% 9.5 mph SW15.3 kmh SW 12.1 mph19.5 kmh 29.42 in996.3 mb 0.00 in0.0 mm 0.00 in0.0 mm 0.01 in0.3 mm
10:40 AM 69.6°F20.9°C 56.0°F13.3°C 62% 8.8 mph SW14.2 kmh SW 9.8 mph15.8 kmh 29.42 in996.3 mb 0.00 in0.0 mm 0.00 in0.0 mm 0.01 in0.3 mm
10:50 AM 68.7°F20.4°C 55.6°F13.1°C 63% 8.3 mph SW13.4 kmh SW 10.7 mph17.2 kmh 29.43 in996.6 mb 0.00 in0.0 mm 0.00 in0.0 mm 0.01 in0.3 mm
11:00 AM 68.0°F20.0°C 55.4°F13.0°C 64% 6.0 mph SW9.7 kmh SW 7.6 mph12.2 kmh 29.43 in996.6 mb 0.00 in0.0 mm 0.00 in0.0 mm 0.01 in0.3 mm
11:10 AM 67.6°F19.8°C 55.9°F13.3°C 66% 8.2 mph SW13.2 kmh SW 14.5 mph23.3 kmh 29.43 in996.6 mb 0.00 in0.0 mm 0.00 in0.0 mm 0.01 in0.3 mm
11:20 AM 67.3°F19.6°C 56.0°F13.3°C 67% 9.1 mph SW14.6 kmh SW 15.9 mph25.6 kmh 29.43 in996.6 mb 0.00 in0.0 mm 0.00 in0.0 mm 0.01 in0.3 mm
11:30 AM 67.8°F19.9°C 56.5°F13.6°C 67% 7.9 mph W12.7 kmh W 9.8 mph15.8 kmh 29.43 in996.6 mb 0.00 in0.0 mm 0.00 in0.0 mm 0.01 in0.3 mm
11:40 AM 67.6°F19.8°C 56.7°F13.7°C 68% 8.6 mph SW13.8 kmh SW 10.7 mph17.2 kmh 29.43 in996.6 mb 0.00 in0.0 mm 0.00 in0.0 mm 0.01 in0.3 mm
11:50 AM 67.8°F19.9°C 56.5°F13.6°C 67% 7.0 mph SW11.3 kmh SW 13.0 mph20.9 kmh 29.43 in996.6 mb 0.00 in0.0 mm 0.00 in0.0 mm 0.01 in0.3 mm
12:00 PM 67.5°F19.7°C 57.4°F14.1°C 70% 6.1 mph SW9.8 kmh SW 8.3 mph13.4 kmh 29.44 in997.0 mb 0.00 in0.0 mm 0.00 in0.0 mm 0.01 in0.3 mm
12:10 PM 67.3°F19.6°C 57.2°F14.0°C 70% 6.4 mph S10.3 kmh S 9.8 mph15.8 kmh 29.44 in997.0 mb 0.00 in0.0 mm 0.00 in0.0 mm 0.01 in0.3 mm
12:20 PM 66.6°F19.2°C 56.9°F13.8°C 71% 5.9 mph SW9.5 kmh SW 8.3 mph13.4 kmh 29.44 in997.0 mb 0.00 in0.0 mm 0.00 in0.0 mm 0.01 in0.3 mm
12:30 PM 66.4°F19.1°C 57.5°F14.2°C 73% 8.1 mph S13.0 kmh S 9.8 mph15.8 kmh 29.44 in997.0 mb 0.00 in0.0 mm 0.00 in0.0 mm 0.01 in0.3 mm
12:40 PM 68.4°F20.2°C 59.0°F15.0°C 72% 7.1 mph WSW11.4 kmh WSW 10.7 mph17.2 kmh 29.44 in997.0 mb 0.00 in0.0 mm 0.00 in0.0 mm 0.01 in0.3 mm
12:50 PM 68.0°F20.0°C 57.9°F14.4°C 70% 7.5 mph SSW12.1 kmh SSW 13.0 mph20.9 kmh 29.45 in997.3 mb 0.00 in0.0 mm 0.00 in0.0 mm 0.01 in0.3 mm
01:00 PM 67.3°F19.6°C 57.6°F14.2°C 71% 6.7 mph S10.8 kmh S 9.2 mph14.8 kmh 29.45 in997.3 mb 0.00 in0.0 mm 0.00 in0.0 mm 0.01 in0.3 mm
01:10 PM 67.6°F19.8°C 57.9°F14.4°C 71% 8.4 mph SW13.5 kmh SW 15.2 mph24.5 kmh 29.45 in997.3 mb 0.00 in0.0 mm 0.00 in0.0 mm 0.01 in0.3 mm
01:20 PM 68.4°F20.2°C 58.6°F14.8°C 71% 9.3 mph SSW15.0 kmh SSW 15.2 mph24.5 kmh 29.45 in997.3 mb 0.00 in0.0 mm 0.00 in0.0 mm 0.01 in0.3 mm
01:30 PM 68.7°F20.4°C 57.8°F14.3°C 68% 7.5 mph SE12.1 kmh SE 12.1 mph19.5 kmh 29.45 in997.3 mb 0.00 in0.0 mm 0.00 in0.0 mm 0.01 in0.3 mm
01:40 PM 68.0°F20.0°C 57.9°F14.4°C 70% 6.7 mph SSW10.8 kmh SSW 8.3 mph13.4 kmh 29.45 in997.3 mb 0.00 in0.0 mm 0.00 in0.0 mm 0.01 in0.3 mm
01:50 PM 69.4°F20.8°C 59.3°F15.2°C 70% 8.0 mph SSW12.9 kmh SSW 14.5 mph23.3 kmh 29.45 in997.3 mb 0.00 in0.0 mm 0.00 in0.0 mm 0.01 in0.3 mm
02:00 PM 70.3°F21.3°C 59.3°F15.2°C 68% 9.9 mph WSW15.9 kmh WSW 14.5 mph23.3 kmh 29.45 in997.3 mb 0.00 in0.0 mm 0.00 in0.0 mm 0.01 in0.3 mm
02:10 PM 70.9°F21.6°C 58.1°F14.5°C 64% 8.1 mph W13.0 kmh W 15.2 mph24.5 kmh 29.45 in997.3 mb 0.00 in0.0 mm 0.00 in0.0 mm 0.01 in0.3 mm
02:20 PM 70.9°F21.6°C 58.1°F14.5°C 64% 8.3 mph WNW13.4 kmh WNW 13.0 mph20.9 kmh 29.45 in997.3 mb 0.00 in0.0 mm 0.00 in0.0 mm 0.01 in0.3 mm
02:30 PM 69.6°F20.9°C 58.2°F14.6°C 67% 9.5 mph SW15.3 kmh SW 14.5 mph23.3 kmh 29.45 in997.3 mb 0.00 in0.0 mm 0.00 in0.0 mm 0.01 in0.3 mm
02:40 PM 68.9°F20.5°C 58.3°F14.6°C 69% 9.5 mph SW15.3 kmh SW 13.6 mph21.9 kmh 29.46 in997.6 mb 0.00 in0.0 mm 0.00 in0.0 mm 0.01 in0.3 mm
02:50 PM 68.7°F20.4°C 58.6°F14.8°C 70% 8.7 mph SW14.0 kmh SW 13.0 mph20.9 kmh 29.46 in997.6 mb 0.00 in0.0 mm 0.00 in0.0 mm 0.01 in0.3 mm
03:00 PM 68.2°F20.1°C 58.0°F14.4°C 70% 11.6 mph SSW18.7 kmh SSW 15.2 mph24.5 kmh 29.45 in997.3 mb 0.00 in0.0 mm 0.00 in0.0 mm 0.01 in0.3 mm
03:10 PM 68.7°F20.4°C 59.0°F15.0°C 71% 9.2 mph SSW14.8 kmh SSW 13.0 mph20.9 kmh 29.46 in997.6 mb 0.00 in0.0 mm 0.00 in0.0 mm 0.01 in0.3 mm
03:20 PM 68.2°F20.1°C 58.4°F14.7°C 71% 7.9 mph SW12.7 kmh SW 11.4 mph18.3 kmh 29.46 in997.6 mb 0.00 in0.0 mm 0.00 in0.0 mm 0.01 in0.3 mm
03:30 PM 68.9°F20.5°C 58.3°F14.6°C 69% 7.8 mph SSE12.6 kmh SSE 11.4 mph18.3 kmh 29.46 in997.6 mb 0.00 in0.0 mm 0.00 in0.0 mm 0.01 in0.3 mm
03:40 PM 68.4°F20.2°C 58.6°F14.8°C 71% 7.7 mph WSW12.4 kmh WSW 10.7 mph17.2 kmh 29.46 in997.6 mb 0.00 in0.0 mm 0.00 in0.0 mm 0.01 in0.3 mm
03:50 PM 69.8°F21.0°C 58.4°F14.7°C 67% 8.8 mph WSW14.2 kmh WSW 14.5 mph23.3 kmh 29.46 in997.6 mb 0.00 in0.0 mm 0.00 in0.0 mm 0.01 in0.3 mm
04:00 PM 69.4°F20.8°C 58.9°F14.9°C 69% 7.1 mph S11.4 kmh S 11.4 mph18.3 kmh 29.46 in997.6 mb 0.00 in0.0 mm 0.00 in0.0 mm 0.01 in0.3 mm
04:10 PM 68.7°F20.4°C 58.6°F14.8°C 70% 9.2 mph SW14.8 kmh SW 13.6 mph21.9 kmh 29.46 in997.6 mb 0.00 in0.0 mm 0.00 in0.0 mm 0.01 in0.3 mm
04:20 PM 66.9°F19.4°C 57.2°F14.0°C 71% 9.8 mph WSW15.8 kmh WSW 16.8 mph27.0 kmh 29.46 in997.6 mb 0.00 in0.0 mm 0.00 in0.0 mm 0.01 in0.3 mm
04:30 PM 65.7°F18.7°C 57.2°F14.0°C 74% 10.2 mph SSW16.4 kmh SSW 15.9 mph25.6 kmh 29.46 in997.6 mb 0.00 in0.0 mm 0.00 in0.0 mm 0.01 in0.3 mm
04:40 PM 65.5°F18.6°C 57.4°F14.1°C 75% 8.2 mph SE13.2 kmh SE 12.1 mph19.5 kmh 29.46 in997.6 mb 0.00 in0.0 mm 0.00 in0.0 mm 0.01 in0.3 mm
04:50 PM 65.3°F18.5°C 57.6°F14.2°C 76% 8.1 mph WSW13.0 kmh WSW 14.5 mph23.3 kmh 29.46 in997.6 mb 0.00 in0.0 mm 0.00 in0.0 mm 0.01 in0.3 mm
05:00 PM 65.1°F18.4°C 57.4°F14.1°C 76% 8.8 mph SW14.2 kmh SW 14.5 mph23.3 kmh 29.47 in998.0 mb 0.00 in0.0 mm 0.00 in0.0 mm 0.01 in0.3 mm
05:10 PM 64.9°F18.3°C 57.6°F14.2°C 77% 9.1 mph SSW14.6 kmh SSW 15.9 mph25.6 kmh 29.46 in997.6 mb 0.00 in0.0 mm 0.00 in0.0 mm 0.01 in0.3 mm
05:20 PM 64.6°F18.1°C 57.6°F14.2°C 78% 8.0 mph S12.9 kmh S 15.9 mph25.6 kmh 29.46 in997.6 mb 0.00 in0.0 mm 0.00 in0.0 mm 0.01 in0.3 mm
05:30 PM 64.0°F17.8°C 57.8°F14.3°C 80% 9.7 mph S15.6 kmh S 15.9 mph25.6 kmh 29.46 in997.6 mb 0.00 in0.0 mm 0.00 in0.0 mm 0.01 in0.3 mm
05:40 PM 63.7°F17.6°C 57.8°F14.3°C 81% 9.4 mph SW15.1 kmh SW 15.9 mph25.6 kmh 29.46 in997.6 mb 0.00 in0.0 mm 0.00 in0.0 mm 0.01 in0.3 mm
05:50 PM 63.5°F17.5°C 57.6°F14.2°C 81% 9.6 mph SSW15.4 kmh SSW 13.0 mph20.9 kmh 29.47 in998.0 mb 0.00 in0.0 mm 0.00 in0.0 mm 0.01 in0.3 mm
06:00 PM 63.5°F17.5°C 57.9°F14.4°C 82% 9.0 mph SW14.5 kmh SW 13.6 mph21.9 kmh 29.47 in998.0 mb 0.00 in0.0 mm 0.00 in0.0 mm 0.01 in0.3 mm
06:10 PM 63.3°F17.4°C 58.8°F14.9°C 85% 10.2 mph SW16.4 kmh SW 14.5 mph23.3 kmh 29.46 in997.6 mb 0.00 in0.0 mm 0.00 in0.0 mm 0.01 in0.3 mm
06:20 PM 63.1°F17.3°C 58.6°F14.8°C 85% 10.4 mph S16.7 kmh S 14.5 mph23.3 kmh 29.47 in998.0 mb 0.02 in0.5 mm 0.12 in3.0 mm 0.04 in1.0 mm
06:30 PM 63.1°F17.3°C 58.6°F14.8°C 85% 11.1 mph SW17.9 kmh SW 13.6 mph21.9 kmh 29.47 in998.0 mb 0.02 in0.5 mm 0.00 in0.0 mm 0.04 in1.0 mm
06:40 PM 63.1°F17.3°C 58.6°F14.8°C 85% 10.3 mph SSW16.6 kmh SSW 15.9 mph25.6 kmh 29.46 in997.6 mb 0.02 in0.5 mm 0.00 in0.0 mm 0.04 in1.0 mm
06:50 PM 63.1°F17.3°C 58.6°F14.8°C 85% 8.8 mph SW14.2 kmh SW 13.0 mph20.9 kmh 29.47 in998.0 mb 0.02 in0.5 mm 0.00 in0.0 mm 0.04 in1.0 mm
07:00 PM 63.1°F17.3°C 58.6°F14.8°C 85% 10.0 mph S16.1 kmh S 13.6 mph21.9 kmh 29.47 in998.0 mb 0.02 in0.5 mm 0.00 in0.0 mm 0.04 in1.0 mm
07:10 PM 63.0°F17.2°C 58.4°F14.7°C 85% 10.1 mph SSW16.3 kmh SSW 16.8 mph27.0 kmh 29.47 in998.0 mb 0.02 in0.5 mm 0.00 in0.0 mm 0.04 in1.0 mm
07:20 PM 63.0°F17.2°C 58.7°F14.8°C 86% 9.5 mph SSW15.3 kmh SSW 13.0 mph20.9 kmh 29.47 in998.0 mb 0.00 in0.0 mm 0.00 in0.0 mm 0.04 in1.0 mm
07:30 PM 63.0°F17.2°C 58.7°F14.8°C 86% 9.7 mph SSW15.6 kmh SSW 11.4 mph18.3 kmh 29.47 in998.0 mb 0.00 in0.0 mm 0.00 in0.0 mm 0.04 in1.0 mm
07:40 PM 63.0°F17.2°C 58.7°F14.8°C 86% 6.5 mph SSW10.5 kmh SSW 10.7 mph17.2 kmh 29.48 in998.3 mb 0.00 in0.0 mm 0.00 in0.0 mm 0.04 in1.0 mm
07:50 PM 62.8°F17.1°C 58.9°F14.9°C 87% 8.5 mph SW13.7 kmh SW 13.0 mph20.9 kmh 29.48 in998.3 mb 0.00 in0.0 mm 0.00 in0.0 mm 0.04 in1.0 mm
08:00 PM 62.8°F17.1°C 58.9°F14.9°C 87% 10.8 mph S17.4 kmh S 13.0 mph20.9 kmh 29.48 in998.3 mb 0.00 in0.0 mm 0.00 in0.0 mm 0.04 in1.0 mm
08:10 PM 62.8°F17.1°C 58.9°F14.9°C 87% 10.1 mph SW16.3 kmh SW 12.1 mph19.5 kmh 29.47 in998.0 mb 0.00 in0.0 mm 0.00 in0.0 mm 0.04 in1.0 mm
08:20 PM 62.6°F17.0°C 58.7°F14.8°C 87% 7.8 mph SSW12.6 kmh SSW 10.7 mph17.2 kmh 29.48 in998.3 mb 0.00 in0.0 mm 0.00 in0.0 mm 0.04 in1.0 mm
08:30 PM 62.6°F17.0°C 58.7°F14.8°C 87% 8.1 mph S13.0 kmh S 12.1 mph19.5 kmh 29.47 in998.0 mb 0.00 in0.0 mm 0.00 in0.0 mm 0.04 in1.0 mm
08:40 PM 62.8°F17.1°C 58.9°F14.9°C 87% 9.6 mph S15.4 kmh S 16.8 mph27.0 kmh 29.48 in998.3 mb 0.00 in0.0 mm 0.00 in0.0 mm 0.04 in1.0 mm
08:50 PM 62.6°F17.0°C 58.7°F14.8°C 87% 11.1 mph SSW17.9 kmh SSW 15.2 mph24.5 kmh 29.48 in998.3 mb 0.00 in0.0 mm 0.00 in0.0 mm 0.04 in1.0 mm
09:00 PM 62.8°F17.1°C 58.5°F14.7°C 86% 8.8 mph SW14.2 kmh SW 15.2 mph24.5 kmh 29.48 in998.3 mb 0.00 in0.0 mm 0.00 in0.0 mm 0.04 in1.0 mm
09:10 PM 62.6°F17.0°C 58.7°F14.8°C 87% 8.1 mph SSW13.0 kmh SSW 13.0 mph20.9 kmh 29.47 in998.0 mb 0.00 in0.0 mm 0.00 in0.0 mm 0.04 in1.0 mm
09:20 PM 62.6°F17.0°C 59.0°F15.0°C 88% 9.7 mph SSW15.6 kmh SSW 13.6 mph21.9 kmh 29.47 in998.0 mb 0.00 in0.0 mm 0.00 in0.0 mm 0.04 in1.0 mm
09:30 PM 62.4°F16.9°C 58.8°F14.9°C 88% 9.2 mph SSW14.8 kmh SSW 13.6 mph21.9 kmh 29.48 in998.3 mb 0.00 in0.0 mm 0.00 in0.0 mm 0.04 in1.0 mm
09:40 PM 62.6°F17.0°C 59.0°F15.0°C 88% 11.8 mph SSW19.0 kmh SSW 16.8 mph27.0 kmh 29.48 in998.3 mb 0.00 in0.0 mm 0.00 in0.0 mm 0.04 in1.0 mm
09:50 PM 62.6°F17.0°C 59.0°F15.0°C 88% 10.7 mph SW17.2 kmh SW 15.2 mph24.5 kmh 29.48 in998.3 mb 0.00 in0.0 mm 0.00 in0.0 mm 0.04 in1.0 mm
10:00 PM 62.6°F17.0°C 59.0°F15.0°C 88% 11.8 mph SSW19.0 kmh SSW 16.8 mph27.0 kmh 29.46 in997.6 mb 0.00 in0.0 mm 0.00 in0.0 mm 0.04 in1.0 mm
10:10 PM 62.6°F17.0°C 59.0°F15.0°C 88% 11.0 mph S17.7 kmh S 16.8 mph27.0 kmh 29.47 in998.0 mb 0.00 in0.0 mm 0.00 in0.0 mm 0.04 in1.0 mm
10:20 PM 62.6°F17.0°C 59.3°F15.2°C 89% 10.5 mph SSW16.9 kmh SSW 15.2 mph24.5 kmh 29.47 in998.0 mb 0.00 in0.0 mm 0.00 in0.0 mm 0.04 in1.0 mm
10:30 PM 62.6°F17.0°C 59.6°F15.3°C 90% 11.5 mph SSW18.5 kmh SSW 15.2 mph24.5 kmh 29.47 in998.0 mb 0.00 in0.0 mm 0.00 in0.0 mm 0.04 in1.0 mm
10:40 PM 62.6°F17.0°C 59.6°F15.3°C 90% 11.2 mph SW18.0 kmh SW 14.5 mph23.3 kmh 29.47 in998.0 mb 0.00 in0.0 mm 0.00 in0.0 mm 0.04 in1.0 mm
10:50 PM 62.6°F17.0°C 59.6°F15.3°C 90% 9.3 mph SW15.0 kmh SW 14.5 mph23.3 kmh 29.48 in998.3 mb 0.00 in0.0 mm 0.00 in0.0 mm 0.04 in1.0 mm
11:00 PM 62.4°F16.9°C 59.5°F15.3°C 90% 12.0 mph SSW19.3 kmh SSW 13.6 mph21.9 kmh 29.47 in998.0 mb 0.00 in0.0 mm 0.00 in0.0 mm 0.04 in1.0 mm
11:10 PM 62.4°F16.9°C 59.8°F15.4°C 91% 10.4 mph SW16.7 kmh SW 13.0 mph20.9 kmh 29.48 in998.3 mb 0.00 in0.0 mm 0.00 in0.0 mm 0.04 in1.0 mm
11:20 PM 62.2°F16.8°C 59.6°F15.3°C 91% 9.1 mph S14.6 kmh S 13.6 mph21.9 kmh 29.48 in998.3 mb 0.00 in0.0 mm 0.00 in0.0 mm 0.04 in1.0 mm
11:30 PM 62.2°F16.8°C 59.9°F15.5°C 92% 9.0 mph S14.5 kmh S 12.1 mph19.5 kmh 29.47 in998.0 mb 0.00 in0.0 mm 0.00 in0.0 mm 0.04 in1.0 mm
11:40 PM 62.1°F16.7°C 59.7°F15.4°C 92% 7.3 mph SSW11.7 kmh SSW 12.1 mph19.5 kmh 29.47 in998.0 mb 0.00 in0.0 mm 0.00 in0.0 mm 0.04 in1.0 mm
11:50 PM 62.2°F16.8°C 60.2°F15.7°C 93% 8.4 mph SW13.5 kmh SW 13.6 mph21.9 kmh 29.48 in998.3 mb 0.00 in0.0 mm 0.00 in0.0 mm 0.04 in1.0 mm